Lometa, Texas
Current Conditions -  °F | °C
As of 2:15 PM on Friday 19 Dec 2014 (Local Time) from KLZZ Reporting Station
Overcast Overcast  
Wind Chill: 50°   Ceiling: 800
Heat Index: 50°   Visibility: 10mi
Dew Point: 48°   Wind: 5mph
Humidity: 90%   Direction: 350°N
Pressure: 30.11"   Gusts: NA
Location:  31.22°N, 98.39°W
Report Text: KLZZ 192015Z AUTO 35004KT 10SM OVC008 10/09 A3011 RMK AO2 T01020087
Loading
Personal Weather Stations






























Interactive Weather Map New forecast layout! Learn more

10-Day Weather Forecast

Advertisements
Track Severe Weather on mobile